createdAt,value
2022-08-30T04:19:29.239Z,15.23
2022-08-30T04:22:32.613Z,14.23
2022-08-30T04:25:36.999Z,12.93
2022-08-30T04:28:39.958Z,13.10
2022-08-30T04:31:42.744Z,12.50
2022-08-30T04:34:46.875Z,11.95
2022-08-30T04:37:52.131Z,10.93
2022-08-30T04:40:55.281Z,10.73
2022-08-30T04:43:57.766Z,11.70
2022-08-30T04:47:00.552Z,10.60
2022-08-30T04:50:03.515Z,10.10
2022-08-30T04:53:06.303Z,9.82
2022-08-30T04:56:12.261Z,9.98
2022-08-30T04:59:15.186Z,9.82
2022-08-30T05:02:18.479Z,8.73
2022-08-30T05:05:39.831Z,9.30
2022-08-30T05:08:46.639Z,7.78
2022-08-30T05:11:50.069Z,8.55
2022-08-30T05:14:52.722Z,7.85
2022-08-30T05:17:55.500Z,8.00
2022-08-30T05:21:11.682Z,8.10
2022-08-30T05:24:14.415Z,7.40
2022-08-30T05:27:16.979Z,8.30
2022-08-30T05:30:20.796Z,9.00
2022-08-30T05:33:23.341Z,8.02
2022-08-30T05:36:28.972Z,8.10
2022-08-30T05:39:45.152Z,7.85
2022-08-30T05:42:54.255Z,8.15
2022-08-30T05:46:08.661Z,7.90
2022-08-30T05:49:11.719Z,7.95
2022-08-30T05:52:17.958Z,7.45
2022-08-30T05:55:21.164Z,8.40
2022-08-30T05:58:23.786Z,7.62
2022-08-30T06:01:41.058Z,7.68
2022-08-30T06:04:43.864Z,7.82
2022-08-30T06:07:46.397Z,8.27
2022-08-30T06:10:49.279Z,8.68
2022-08-30T06:13:55.805Z,9.05
2022-08-30T06:16:58.528Z,8.73
2022-08-30T06:20:01.519Z,9.13
2022-08-30T06:23:04.319Z,9.00
2022-08-30T06:26:08.369Z,8.82
2022-08-30T06:29:14.779Z,9.15
2022-08-30T06:32:17.225Z,7.70
2022-08-30T06:35:19.974Z,8.20
2022-08-30T06:38:22.653Z,7.78
2022-08-30T06:41:28.849Z,7.40
2022-08-30T06:44:31.434Z,7.80
2022-08-30T06:47:34.177Z,7.30
2022-08-30T06:50:36.738Z,7.32
2022-08-30T06:53:41.208Z,7.80
2022-08-30T06:56:57.797Z,8.10
2022-08-30T07:00:02.531Z,7.50
2022-08-30T07:03:05.150Z,7.20
2022-08-30T07:06:08.872Z,7.55
2022-08-30T07:09:11.482Z,7.45
2022-08-30T07:12:17.466Z,7.80
2022-08-30T07:15:22.923Z,6.97
2022-08-30T07:18:46.141Z,7.78
2022-08-30T07:21:49.465Z,7.35
2022-08-30T07:24:52.398Z,7.43
2022-08-30T07:27:55.631Z,6.90
2022-08-30T07:30:58.648Z,6.87
2022-08-30T07:34:01.162Z,6.70
2022-08-30T07:37:03.869Z,7.03
2022-08-30T07:40:09.970Z,6.60
2022-08-30T07:43:12.902Z,6.90
2022-08-30T07:46:16.231Z,6.95
2022-08-30T07:49:20.047Z,6.50
2022-08-30T07:52:22.551Z,5.90
2022-08-30T07:55:25.467Z,5.95
2022-08-30T07:58:28.071Z,6.00
2022-08-30T08:01:31.211Z,6.22
2022-08-30T08:04:35.578Z,6.10
2022-08-30T08:07:38.126Z,5.65
2022-08-30T08:10:42.763Z,6.30
2022-08-30T08:13:53.235Z,5.37
2022-08-30T08:16:57.473Z,5.90
2022-08-30T08:19:59.987Z,5.82
2022-08-30T08:23:02.953Z,5.55
2022-08-30T08:26:05.951Z,6.15
2022-08-30T08:29:10.083Z,5.68
2022-08-30T08:32:12.620Z,6.00
2022-08-30T08:35:16.916Z,5.93
2022-08-30T08:38:19.580Z,5.62
2022-08-30T08:41:37.648Z,5.65
2022-08-30T08:44:54.449Z,6.00
2022-08-30T08:48:45.657Z,6.05
2022-08-30T08:52:13.375Z,5.57
2022-08-30T08:55:20.943Z,6.07
2022-08-30T08:58:26.401Z,6.05
2022-08-30T09:01:30.795Z,5.50
2022-08-30T09:04:38.057Z,5.93
2022-08-30T09:07:45.311Z,5.82
2022-08-30T09:14:38.831Z,5.53
2022-08-30T09:17:53.552Z,5.35
2022-08-30T09:24:47.653Z,5.55
2022-08-30T09:27:52.838Z,5.30
2022-08-30T09:31:03.902Z,5.30
2022-08-30T09:34:09.721Z,5.50
2022-08-30T09:37:30.338Z,5.80
2022-08-30T09:40:42.361Z,5.40
2022-08-30T09:43:44.994Z,5.60
2022-08-30T09:46:51.138Z,5.55
2022-08-30T09:50:07.878Z,5.15
2022-08-30T09:53:32.939Z,5.90
2022-08-30T09:57:01.095Z,5.03
2022-08-30T10:08:14.067Z,5.53
2022-08-30T10:11:44.981Z,5.93
2022-08-30T10:15:31.266Z,5.90
2022-08-30T10:18:40.730Z,5.45
2022-08-30T10:22:05.604Z,5.87
2022-08-30T10:25:18.591Z,5.50
2022-08-30T10:28:35.267Z,5.78
2022-08-30T10:32:02.853Z,5.72
2022-08-30T10:35:10.933Z,5.53
2022-08-30T10:38:30.803Z,5.87
2022-08-30T10:41:50.263Z,5.75
2022-08-30T10:48:09.134Z,5.87
2022-08-30T10:51:39.798Z,5.05
2022-08-30T10:54:56.407Z,5.62
2022-08-30T10:58:06.284Z,5.65
2022-08-30T11:01:46.576Z,5.85
2022-08-30T11:04:49.591Z,5.97
2022-08-30T11:07:58.019Z,6.10
2022-08-30T11:11:31.656Z,5.82
2022-08-30T11:14:34.583Z,6.28
2022-08-30T11:21:49.961Z,5.95
2022-08-30T11:25:38.775Z,6.00
2022-08-30T11:28:41.315Z,5.45
2022-08-30T11:31:44.640Z,5.60
2022-08-30T11:34:55.487Z,5.60
2022-08-30T11:37:58.325Z,5.70
2022-08-30T11:41:30.003Z,6.00
2022-08-30T11:44:34.612Z,5.68
2022-08-30T11:47:45.624Z,5.60
2022-08-30T11:51:06.039Z,5.53
2022-08-30T11:54:20.954Z,5.87
2022-08-30T11:57:30.144Z,5.32
2022-08-30T12:00:42.007Z,5.35
2022-08-30T12:03:55.186Z,5.28
2022-08-30T12:07:04.124Z,5.60
2022-08-30T12:10:21.072Z,6.05
2022-08-30T12:13:40.475Z,5.85
2022-08-30T12:17:07.376Z,5.50
2022-08-30T12:20:52.060Z,5.20
2022-08-30T12:24:40.251Z,5.53
2022-08-30T12:27:42.806Z,5.40
2022-08-30T12:30:46.656Z,5.60
2022-08-30T12:34:00.774Z,6.05
2022-08-30T12:37:10.797Z,6.20
2022-08-30T12:40:18.229Z,5.90
2022-08-30T12:43:40.797Z,5.68
2022-08-30T12:46:48.339Z,5.62
2022-08-30T12:49:52.924Z,5.82
2022-08-30T12:53:02.346Z,5.85
2022-08-30T12:56:12.798Z,5.55
2022-08-30T13:02:56.791Z,6.00
2022-08-30T13:06:00.094Z,6.03
2022-08-30T13:09:05.763Z,5.85
2022-08-30T13:12:20.275Z,5.62
2022-08-30T13:15:32.518Z,5.55
2022-08-30T13:18:35.458Z,5.90
2022-08-30T13:22:24.032Z,6.05
2022-08-30T13:25:30.931Z,5.62
2022-08-30T13:28:53.986Z,5.72
2022-08-30T13:31:57.099Z,6.05
2022-08-30T13:35:00.044Z,5.62
2022-08-30T13:38:02.862Z,5.53
2022-08-30T13:41:22.318Z,5.62
2022-08-30T13:44:24.872Z,6.00
